長崎空港の過去48時間の天気

長崎空港 (Nagasaki)

現在時刻: 9/17 00:12 JST (9/16 15:12 UTC) 以下の時間は現地時間です。

過去48時間のMETAR気象情報
時間 風向 風速(m/s) 視程 気温(℃) 湿度(%) 気圧(hPa) 天気現象
16 21:00 7 10km以上 24 69 1007
16 20:00 7 10km以上 25 65 1007
16 19:00 8 10km以上 25 69 1006
16 18:00 9 10km以上 26 65 1005
16 17:00 8 10km以上 27 66 1005
16 16:00 8 10km以上 29 62 1004
16 15:00 9 10km以上 30 59 1004
16 14:00 9 10km以上 30 59 1004
16 13:00 9 10km以上 30 59 1004
16 12:00 9 10km以上 30 62 1005
16 11:00 8 10km以上 29 66 1005
16 10:00 7 10km以上 29 66 1006
16 09:00 6 10km以上 28 70 1006
16 08:00 6 10km以上 27 74 1005
16 07:00 6 10km以上 25 83 1005
16 06:10 8 10km以上 25 83 1005
15 21:00 北北西 5 10km以上 26 84 1006
15 20:00 6 10km以上 27 79 1005
15 19:00 北北西 6 10km以上 27 84 1005
15 18:00 7 10km以上 28 79 1004
15 17:00 8 10km以上 30 70 1004
15 16:00 北北西 7 10km以上 30 75 1004
15 15:00 西北西 5 10km以上 33 56 1004
15 14:00 西北西 3 10km以上 33 56 1005
15 13:00 南西 3 10km以上 32 63 1006
15 12:00 南西 3 10km以上 31 66 1007
15 11:00 不定 2 10km以上 31 66 1007
15 10:00 3 10km以上 29 79 1008
15 09:00 北西 3 10km以上 28 79 1008
15 08:00 不定 1 10km以上 27 84 1008
15 07:00 北北東 2 10km以上 25 94 1008
15 06:10 南東 2 10km以上 25 94 1008
RJFU 161200Z 01014KT 9999 FEW030 24/18 Q1007
RJFU 161100Z 01014KT 9999 FEW030 25/18 Q1007
RJFU 161000Z 01016KT 9999 FEW030 25/19 Q1006
RJFU 160900Z 01017KT 9999 FEW030 26/19 Q1005
RJFU 160800Z 35016KT 9999 FEW030 27/20 Q1005
RJFU 160700Z 35016KT 9999 FEW030 29/21 Q1004
RJFU 160600Z 36018KT 9999 FEW030 30/21 Q1004
RJFU 160500Z 35017KT 9999 FEW030 30/21 Q1004
RJFU 160400Z 35017KT 9999 FEW030 SCT040 30/21 Q1004
RJFU 160300Z 36017KT 9999 FEW030 BKN040 30/22 Q1005
RJFU 160200Z 35015KT 9999 FEW030 BKN040 29/22 Q1005
RJFU 160100Z 35014KT 9999 FEW020 SCT030 29/22 Q1006
RJFU 160000Z 35012KT 9999 FEW025 28/22 Q1006
RJFU 152300Z 35012KT 9999 FEW025 27/22 Q1005
RJFU 152200Z 36012KT 9999 FEW025 25/22 Q1005
RJFU 152110Z 36015KT 9999 FEW025 25/22 Q1005 RMK 1CU025 A2969
RJFU 151200Z 34010KT 9999 FEW030 26/23 Q1006
RJFU 151100Z 35011KT 9999 FEW030 27/23 Q1005
RJFU 151000Z 34012KT 9999 FEW030 27/24 Q1005
RJFU 150900Z 35014KT 9999 FEW020 28/24 Q1004
RJFU 150800Z 35015KT 9999 FEW040 30/24 Q1004
RJFU 150700Z 33014KT 9999 FEW040 SCT050 BKN070 30/25 Q1004
RJFU 150600Z 30009KT 260V330 9999 SCT040 33/23 Q1004
RJFU 150500Z 29006KT 240V330 9999 SCT035 33/23 Q1005
RJFU 150400Z 22006KT 180V250 9999 SCT035 32/24 Q1006
RJFU 150300Z 22006KT 9999 FEW025 SCT035 31/24 Q1007
RJFU 150200Z VRB03KT 9999 FEW025 31/24 Q1007
RJFU 150100Z 35005KT 250V020 9999 FEW025 29/25 Q1008
RJFU 150000Z 32006KT 280V350 9999 FEW020 28/24 Q1008
RJFU 142300Z VRB01KT 9999 FEW020 27/24 Q1008
RJFU 142200Z 03003KT 9999 FEW015 25/24 Q1008
RJFU 142110Z 14004KT 9999 FEW015 25/24 Q1008 RMK 1CU015 A2977